createdAt,value
2016-07-08T00:00:19.104Z,18.31
2016-07-08T00:01:19.707Z,18.24
2016-07-08T00:02:19.089Z,18.25
2016-07-08T00:03:19.077Z,18.27
2016-07-08T00:04:19.063Z,18.21
2016-07-08T00:05:19.054Z,18.25
2016-07-08T00:06:19.663Z,18.18
2016-07-08T00:07:19.650Z,18.21
2016-07-08T00:08:19.016Z,18.1
2016-07-08T00:09:19.012Z,18.15
2016-07-08T00:10:19.002Z,18.33
2016-07-08T00:11:18.990Z,18.28
2016-07-08T00:12:18.985Z,18.18
2016-07-08T00:13:18.972Z,18.18
2016-07-08T00:14:19.575Z,18.17
2016-07-08T00:15:18.953Z,18.21
2016-07-08T00:16:18.955Z,18.19
2016-07-08T00:17:18.927Z,18.21
2016-07-08T00:18:18.921Z,18.13
2016-07-08T00:19:19.168Z,18.21
2016-07-08T00:20:18.901Z,18.1
2016-07-08T00:21:19.504Z,18.09
2016-07-08T00:22:18.889Z,18.15
2016-07-08T00:23:18.868Z,18.15
2016-07-08T00:24:18.859Z,18.13
2016-07-08T00:25:18.847Z,18.1
2016-07-08T00:26:18.889Z,18.17
2016-07-08T00:27:18.826Z,18.21
2016-07-08T00:28:19.430Z,18.15
2016-07-08T00:29:18.812Z,18.17
2016-07-08T00:30:18.801Z,18.17
2016-07-08T00:31:19.407Z,18.18
2016-07-08T00:32:18.779Z,18.1
2016-07-08T00:33:19.376Z,18.18
2016-07-08T00:34:19.372Z,18.12
2016-07-08T00:35:18.747Z,18.18
2016-07-08T00:36:18.744Z,18.22
2016-07-08T00:37:18.731Z,18.18
2016-07-08T00:38:19.333Z,18.12
2016-07-08T00:39:19.320Z,18.28
2016-07-08T00:40:19.310Z,18.25
2016-07-08T00:41:19.297Z,18.31
2016-07-08T00:42:18.676Z,18.29
2016-07-08T00:43:18.667Z,18.13
2016-07-08T00:44:18.656Z,18.12
2016-07-08T00:45:19.265Z,18.17
2016-07-08T00:46:18.639Z,18.18
2016-07-08T00:47:18.626Z,18.12
2016-07-08T00:48:18.614Z,18.12
2016-07-08T00:49:19.221Z,18.13
2016-07-08T00:50:18.604Z,18.19
2016-07-08T00:51:18.585Z,18.12
2016-07-08T00:52:18.577Z,18.17
2016-07-08T00:53:18.566Z,18.25
2016-07-08T00:54:19.165Z,18.17
2016-07-08T00:55:18.546Z,18.28
2016-07-08T00:56:18.538Z,18.15
2016-07-08T00:57:18.528Z,18.15
2016-07-08T00:58:19.740Z,18.18
2016-07-08T00:59:19.127Z,18.18
2016-07-08T01:00:19.112Z,18.12
2016-07-08T01:01:18.487Z,18.12
2016-07-08T01:02:19.089Z,18.21
2016-07-08T01:03:18.464Z,18.17
2016-07-08T01:04:18.457Z,18.19
2016-07-08T01:05:18.444Z,18.12
2016-07-08T01:06:18.444Z,18.24
2016-07-08T01:07:18.427Z,18.18
2016-07-08T01:08:18.409Z,18.17
2016-07-08T01:09:18.401Z,18.24
2016-07-08T01:10:18.398Z,18.19
2016-07-08T01:11:18.381Z,18.15
2016-07-08T01:12:18.982Z,18.18
2016-07-08T01:13:18.974Z,18.15
2016-07-08T01:14:18.962Z,18.18
2016-07-08T01:15:18.345Z,18.19
2016-07-08T01:16:18.329Z,18.18
2016-07-08T01:17:19.547Z,18.17
2016-07-08T01:18:18.312Z,18.12
2016-07-08T01:19:18.298Z,18.12
2016-07-08T01:20:18.293Z,18.19
2016-07-08T01:21:18.281Z,18.15
2016-07-08T01:22:18.274Z,18.12
2016-07-08T01:23:19.485Z,18.1
2016-07-08T01:24:18.864Z,18.12
2016-07-08T01:25:18.240Z,18.15
2016-07-08T01:26:18.234Z,18.17
2016-07-08T01:27:18.219Z,18.17
2016-07-08T01:28:18.210Z,18.09
2016-07-08T01:29:18.199Z,18.1
2016-07-08T01:30:18.194Z,18.06
2016-07-08T01:31:18.181Z,18.03
2016-07-08T01:32:18.778Z,17.97
2016-07-08T01:33:18.166Z,18
2016-07-08T01:34:19.378Z,17.99
2016-07-08T01:35:18.141Z,18
2016-07-08T01:36:18.739Z,18.02
2016-07-08T01:37:18.118Z,17.97
2016-07-08T01:38:18.106Z,17.97
2016-07-08T01:39:18.148Z,17.88
2016-07-08T01:40:18.091Z,17.92
2016-07-08T01:41:18.072Z,17.88
2016-07-08T01:42:18.681Z,17.97
2016-07-08T01:43:18.066Z,17.92
2016-07-08T01:44:18.047Z,17.85
2016-07-08T01:45:18.039Z,17.87
2016-07-08T01:46:18.636Z,17.85
2016-07-08T01:47:18.015Z,17.84
2016-07-08T01:48:18.004Z,17.82
2016-07-08T01:49:17.996Z,17.82
2016-07-08T01:50:17.983Z,17.78
2016-07-08T01:51:17.973Z,17.84
2016-07-08T01:52:18.579Z,17.81
2016-07-08T01:53:17.966Z,17.84
2016-07-08T01:54:17.947Z,17.81
2016-07-08T01:55:17.935Z,17.81
2016-07-08T01:56:18.543Z,17.82
2016-07-08T01:57:17.916Z,17.82
2016-07-08T01:58:18.516Z,17.84
2016-07-08T01:59:18.519Z,17.81
2016-07-08T02:00:17.881Z,17.82
2016-07-08T02:01:17.875Z,17.81
2016-07-08T02:02:17.871Z,17.79
2016-07-08T02:03:18.463Z,17.76
2016-07-08T02:04:17.894Z,17.79
2016-07-08T02:05:17.841Z,17.81
2016-07-08T02:06:17.816Z,17.81
2016-07-08T02:07:17.837Z,17.78
2016-07-08T02:08:18.412Z,17.78
2016-07-08T02:09:17.792Z,17.84
2016-07-08T02:10:17.783Z,17.88
2016-07-08T02:11:18.387Z,17.81
2016-07-08T02:12:18.982Z,17.84
2016-07-08T02:13:17.769Z,17.81
2016-07-08T02:14:17.740Z,17.87
2016-07-08T02:15:17.786Z,17.81
2016-07-08T02:16:17.715Z,17.87
2016-07-08T02:17:18.348Z,17.79
2016-07-08T02:18:17.699Z,17.82
2016-07-08T02:19:18.540Z,17.82
2016-07-08T02:20:17.675Z,17.79
2016-07-08T02:21:17.661Z,17.81
2016-07-08T02:22:17.668Z,17.81
2016-07-08T02:23:17.644Z,17.84
2016-07-08T02:24:17.639Z,17.81
2016-07-08T02:25:17.630Z,17.84
2016-07-08T02:26:18.256Z,17.82
2016-07-08T02:27:17.616Z,17.82
2016-07-08T02:28:17.594Z,17.82
2016-07-08T02:29:18.194Z,17.82
2016-07-08T02:30:17.573Z,17.79
2016-07-08T02:31:18.175Z,17.82
2016-07-08T02:32:17.554Z,17.81
2016-07-08T02:33:18.156Z,17.81
2016-07-08T02:34:17.531Z,17.81
2016-07-08T02:35:17.521Z,17.79
2016-07-08T02:36:17.509Z,17.76
2016-07-08T02:37:18.113Z,17.78
2016-07-08T02:38:17.493Z,17.78
2016-07-08T02:39:17.481Z,17.82
2016-07-08T02:40:17.471Z,17.79
2016-07-08T02:41:18.074Z,17.79
2016-07-08T02:42:17.452Z,17.78
2016-07-08T02:43:17.439Z,17.82
2016-07-08T02:44:17.431Z,17.76
2016-07-08T02:45:17.417Z,17.81
2016-07-08T02:46:18.020Z,17.76
2016-07-08T02:47:17.396Z,17.74
2016-07-08T02:48:17.385Z,17.71
2016-07-08T02:49:17.989Z,17.69
2016-07-08T02:50:17.979Z,17.73
2016-07-08T02:51:17.356Z,17.7
2016-07-08T02:52:17.357Z,17.66
2016-07-08T02:53:17.950Z,17.64
2016-07-08T02:54:17.937Z,17.67
2016-07-08T02:55:17.930Z,17.69
2016-07-08T02:56:17.303Z,17.62
2016-07-08T02:57:17.295Z,17.62
2016-07-08T02:58:17.286Z,17.67
2016-07-08T02:59:17.273Z,17.54
2016-07-08T03:00:17.878Z,17.63
2016-07-08T03:01:17.256Z,17.53
2016-07-08T03:02:17.853Z,17.54
2016-07-08T03:03:17.233Z,17.5
2016-07-08T03:04:17.849Z,17.48
2016-07-08T03:05:18.454Z,17.48
2016-07-08T03:06:17.198Z,17.4
2016-07-08T03:07:17.193Z,17.53
2016-07-08T03:08:17.794Z,17.5
2016-07-08T03:09:17.167Z,17.48
2016-07-08T03:10:17.159Z,17.48
2016-07-08T03:11:17.768Z,17.44
2016-07-08T03:12:17.145Z,17.35
2016-07-08T03:13:17.769Z,17.36
2016-07-08T03:14:17.120Z,17.36
2016-07-08T03:15:17.104Z,17.36
2016-07-08T03:16:17.097Z,17.36
2016-07-08T03:17:17.085Z,17.35
2016-07-08T03:18:17.073Z,17.36
2016-07-08T03:19:17.069Z,17.35
2016-07-08T03:20:17.054Z,17.4
2016-07-08T03:21:17.654Z,17.33
2016-07-08T03:22:17.042Z,17.36
2016-07-08T03:23:17.018Z,17.32
2016-07-08T03:24:17.013Z,17.32
2016-07-08T03:25:17.006Z,17.38
2016-07-08T03:26:17.603Z,17.4
2016-07-08T03:27:16.976Z,17.35
2016-07-08T03:28:16.977Z,17.32
2016-07-08T03:29:16.959Z,17.4
2016-07-08T03:30:17.563Z,17.32
2016-07-08T03:31:16.940Z,17.33
2016-07-08T03:32:16.927Z,17.33
2016-07-08T03:33:16.917Z,17.32
2016-07-08T03:34:16.908Z,17.35
2016-07-08T03:35:16.893Z,17.32
2016-07-08T03:36:17.508Z,17.3
2016-07-08T03:37:16.873Z,17.26
2016-07-08T03:38:16.864Z,17.33
2016-07-08T03:39:16.851Z,17.36
2016-07-08T03:40:16.852Z,17.25
2016-07-08T03:41:16.834Z,17.4
2016-07-08T03:42:17.486Z,17.29
2016-07-08T03:43:16.818Z,17.4
2016-07-08T03:44:16.800Z,17.36
2016-07-08T03:45:17.403Z,17.4
2016-07-08T03:46:17.390Z,17.38
2016-07-08T03:47:17.380Z,17.33
2016-07-08T03:48:16.757Z,17.41
2016-07-08T03:49:16.747Z,17.33
2016-07-08T03:50:16.735Z,17.4
2016-07-08T03:51:17.341Z,17.38
2016-07-08T03:52:16.721Z,17.38
2016-07-08T03:53:16.700Z,17.41
2016-07-08T03:54:17.307Z,17.38
2016-07-08T03:55:16.682Z,17.32
2016-07-08T03:56:16.669Z,17.35
2016-07-08T03:57:16.663Z,17.36
2016-07-08T03:58:16.648Z,17.4
2016-07-08T03:59:16.638Z,17.4
2016-07-08T04:00:17.244Z,17.35
2016-07-08T04:01:16.618Z,17.4
2016-07-08T04:02:16.661Z,17.36
2016-07-08T04:03:17.218Z,17.36
2016-07-08T04:04:16.584Z,17.33
2016-07-08T04:05:16.577Z,17.36
2016-07-08T04:06:17.187Z,17.44
2016-07-08T04:07:16.554Z,17.35
2016-07-08T04:08:17.160Z,17.41
2016-07-08T04:09:17.148Z,17.33
2016-07-08T04:10:16.522Z,17.32
2016-07-08T04:11:16.510Z,17.3
2016-07-08T04:12:16.499Z,17.33
2016-07-08T04:13:17.109Z,17.33
2016-07-08T04:14:16.486Z,17.25
2016-07-08T04:15:17.080Z,17.28
2016-07-08T04:16:16.458Z,17.23
2016-07-08T04:17:16.456Z,17.23
2016-07-08T04:18:16.435Z,17.18
2016-07-08T04:19:16.631Z,17.15
2016-07-08T04:20:16.416Z,17.17
2016-07-08T04:21:16.405Z,17.14
2016-07-08T04:22:16.394Z,17.1
2016-07-08T04:23:16.383Z,17.07
2016-07-08T04:24:16.379Z,17.13
2016-07-08T04:25:16.367Z,17.07
2016-07-08T04:26:16.351Z,17.11
2016-07-08T04:27:16.342Z,17.15
2016-07-08T04:28:16.335Z,17.14
2016-07-08T04:29:16.933Z,17.23
2016-07-08T04:30:16.309Z,17.25
2016-07-08T04:31:16.301Z,17.35
2016-07-08T04:32:16.288Z,17.29
2016-07-08T04:33:16.282Z,17.38
2016-07-08T04:34:16.271Z,17.4
2016-07-08T04:35:16.255Z,17.54
2016-07-08T04:36:16.858Z,17.59
2016-07-08T04:37:16.239Z,17.81
2016-07-08T04:38:16.230Z,17.79
2016-07-08T04:39:16.229Z,17.87
2016-07-08T04:40:16.205Z,17.94
2016-07-08T04:41:16.194Z,18.02
2016-07-08T04:42:16.187Z,18.1
2016-07-08T04:43:16.173Z,18.1
2016-07-08T04:44:16.776Z,18.13
2016-07-08T04:45:16.766Z,18.27
2016-07-08T04:46:16.754Z,18.25
2016-07-08T04:47:16.137Z,18.29
2016-07-08T04:48:16.740Z,18.33
2016-07-08T04:49:16.111Z,18.27
2016-07-08T04:50:16.103Z,18.29
2016-07-08T04:51:16.091Z,18.39
2016-07-08T04:52:16.701Z,18.37
2016-07-08T04:53:16.686Z,18.43
2016-07-08T04:54:16.675Z,18.42
2016-07-08T04:55:16.051Z,18.5
2016-07-08T04:56:16.050Z,18.52
2016-07-08T04:57:16.032Z,18.58
2016-07-08T04:58:16.023Z,18.61
2016-07-08T04:59:16.014Z,18.55
2016-07-08T05:00:16.005Z,18.64
2016-07-08T05:01:15.999Z,18.59
2016-07-08T05:02:16.597Z,18.72
2016-07-08T05:03:15.976Z,18.7
2016-07-08T05:04:16.578Z,18.65
2016-07-08T05:05:16.564Z,18.67
2016-07-08T05:06:15.945Z,18.61
2016-07-08T05:07:15.928Z,18.76
2016-07-08T05:08:15.924Z,18.64
2016-07-08T05:09:15.915Z,18.7
2016-07-08T05:10:15.910Z,18.77
2016-07-08T05:11:16.508Z,18.73
2016-07-08T05:12:16.496Z,18.8
2016-07-08T05:13:15.881Z,18.79
2016-07-08T05:14:15.866Z,18.77
2016-07-08T05:15:15.855Z,18.76
2016-07-08T05:16:15.841Z,18.74
2016-07-08T05:17:15.836Z,18.74
2016-07-08T05:18:15.829Z,18.79
2016-07-08T05:19:15.831Z,18.8
2016-07-08T05:20:16.468Z,18.79
2016-07-08T05:21:16.408Z,18.8
2016-07-08T05:22:16.400Z,18.8
2016-07-08T05:23:15.781Z,18.73
2016-07-08T05:24:15.772Z,18.79
2016-07-08T05:25:15.761Z,18.79
2016-07-08T05:26:15.748Z,18.77
2016-07-08T05:27:15.736Z,18.74
2016-07-08T05:28:15.743Z,18.83
2016-07-08T05:29:15.719Z,18.82
2016-07-08T05:30:15.709Z,18.8
2016-07-08T05:31:16.310Z,18.76
2016-07-08T05:32:15.686Z,18.87
2016-07-08T05:33:15.690Z,18.9
2016-07-08T05:34:15.667Z,18.95
2016-07-08T05:35:15.687Z,18.84
2016-07-08T05:36:15.649Z,18.92
2016-07-08T05:37:15.638Z,19.02
2016-07-08T05:38:15.636Z,19.05
2016-07-08T05:39:16.236Z,19.06
2016-07-08T05:40:15.607Z,19.06
2016-07-08T05:41:15.645Z,19.2
2016-07-08T05:42:15.588Z,19.14
2016-07-08T05:43:16.190Z,19.28
2016-07-08T05:44:15.570Z,19.21
2016-07-08T05:45:15.558Z,19.29
2016-07-08T05:46:15.558Z,19.31
2016-07-08T05:47:15.540Z,19.32
2016-07-08T05:48:15.530Z,19.36
2016-07-08T05:49:16.144Z,19.36
2016-07-08T05:50:15.510Z,19.42
2016-07-08T05:51:15.500Z,19.42
2016-07-08T05:52:15.489Z,19.53
2016-07-08T05:53:15.486Z,19.53
2016-07-08T05:54:15.472Z,19.54
2016-07-08T05:55:15.463Z,19.47
2016-07-08T05:56:15.454Z,19.58
2016-07-08T05:57:16.059Z,19.63
2016-07-08T05:58:16.046Z,19.68
2016-07-08T05:59:16.052Z,19.68
2016-07-08T06:00:16.037Z,19.68
2016-07-08T06:01:15.406Z,19.65
2016-07-08T06:02:15.393Z,19.68
2016-07-08T06:03:15.389Z,19.78
2016-07-08T06:04:15.379Z,19.73
2016-07-08T06:05:15.367Z,19.76
2016-07-08T06:06:15.364Z,19.79
2016-07-08T06:07:15.350Z,19.88
2016-07-08T06:08:15.950Z,19.84
2016-07-08T06:09:15.944Z,19.86
2016-07-08T06:10:15.320Z,19.94
2016-07-08T06:11:15.311Z,19.98
2016-07-08T06:12:15.311Z,19.95
2016-07-08T06:13:15.301Z,20.05
2016-07-08T06:14:15.899Z,20.1
2016-07-08T06:15:15.286Z,20.09
2016-07-08T06:16:15.880Z,20.12
2016-07-08T06:17:15.874Z,20.27
2016-07-08T06:18:15.866Z,20.28
2016-07-08T06:19:15.454Z,20.33
2016-07-08T06:20:15.848Z,20.39
2016-07-08T06:21:15.846Z,20.43
2016-07-08T06:22:15.837Z,20.39
2016-07-08T06:23:15.833Z,20.46
2016-07-08T06:24:15.195Z,20.47
2016-07-08T06:25:15.818Z,20.53
2016-07-08T06:26:15.180Z,20.65
2016-07-08T06:27:15.792Z,20.58
2016-07-08T06:28:16.396Z,20.64
2016-07-08T06:29:15.155Z,20.69
2016-07-08T06:30:15.146Z,20.77
2016-07-08T06:31:15.138Z,20.74
2016-07-08T06:32:15.127Z,20.84
2016-07-08T06:33:15.117Z,20.8
2016-07-08T06:34:15.113Z,20.84
2016-07-08T06:35:15.105Z,20.86
2016-07-08T06:36:15.096Z,20.95
2016-07-08T06:37:15.707Z,20.93
2016-07-08T06:38:15.688Z,20.99
2016-07-08T06:39:15.072Z,21.05
2016-07-08T06:40:15.061Z,21.16
2016-07-08T06:41:16.281Z,21.24
2016-07-08T06:42:15.044Z,21.26
2016-07-08T06:43:15.649Z,21.36
2016-07-08T06:44:15.028Z,21.36
2016-07-08T06:45:15.023Z,21.54
2016-07-08T06:46:15.010Z,21.48
2016-07-08T06:47:15.011Z,21.57
2016-07-08T06:48:15.607Z,21.66
2016-07-08T06:49:14.985Z,21.83
2016-07-08T06:50:14.978Z,21.71
2016-07-08T06:51:14.966Z,21.82
2016-07-08T06:52:14.963Z,21.88
2016-07-08T06:53:14.954Z,21.88
2016-07-08T06:54:14.944Z,21.98
2016-07-08T06:55:14.941Z,22.06
2016-07-08T06:56:14.932Z,22.06
2016-07-08T06:57:14.918Z,22.1
2016-07-08T06:58:14.915Z,22.23
2016-07-08T06:59:14.906Z,22.37
2016-07-08T07:00:15.508Z,22.67
2016-07-08T07:01:14.892Z,22.84
2016-07-08T07:02:14.882Z,22.83
2016-07-08T07:03:14.869Z,22.8
2016-07-08T07:04:15.476Z,22.8
2016-07-08T07:05:14.858Z,22.72
2016-07-08T07:06:14.846Z,22.8
2016-07-08T07:07:14.844Z,22.72
2016-07-08T07:08:15.449Z,22.72
2016-07-08T07:09:15.442Z,22.74
2016-07-08T07:10:14.821Z,22.71
2016-07-08T07:11:14.812Z,22.78
2016-07-08T07:12:14.800Z,22.75
2016-07-08T07:13:14.798Z,22.72
2016-07-08T07:14:14.793Z,22.71
2016-07-08T07:15:14.782Z,22.82
2016-07-08T07:16:14.782Z,22.77
2016-07-08T07:17:15.381Z,22.75
2016-07-08T07:18:14.763Z,22.75
2016-07-08T07:19:14.755Z,22.84
2016-07-08T07:20:15.407Z,22.74
2016-07-08T07:21:15.961Z,22.75
2016-07-08T07:22:15.345Z,22.72
2016-07-08T07:23:15.338Z,22.71
2016-07-08T07:24:15.338Z,22.71
2016-07-08T07:25:14.708Z,22.65
2016-07-08T07:26:15.929Z,22.65
2016-07-08T07:27:15.308Z,22.53
2016-07-08T07:28:15.296Z,22.64
2016-07-08T07:29:14.676Z,22.6
2016-07-08T07:30:15.288Z,22.67
2016-07-08T07:31:14.663Z,22.62
2016-07-08T07:32:14.672Z,22.6
2016-07-08T07:33:15.264Z,22.72
2016-07-08T07:34:15.259Z,22.77
2016-07-08T07:35:15.245Z,22.71
2016-07-08T07:36:14.625Z,22.77
2016-07-08T07:37:15.233Z,22.84
2016-07-08T07:38:14.613Z,22.97
2016-07-08T07:39:14.603Z,22.84
2016-07-08T07:40:14.607Z,22.83
2016-07-08T07:41:15.199Z,22.8
2016-07-08T07:42:15.193Z,22.78
2016-07-08T07:43:15.188Z,22.84
2016-07-08T07:44:14.572Z,22.84
2016-07-08T07:45:14.555Z,22.71
2016-07-08T07:46:14.558Z,22.86
2016-07-08T07:47:14.544Z,22.8
2016-07-08T07:48:14.537Z,22.78
2016-07-08T07:49:15.138Z,22.78
2016-07-08T07:50:15.134Z,22.75
2016-07-08T07:51:14.514Z,22.84
2016-07-08T07:52:15.124Z,22.86
2016-07-08T07:53:14.496Z,22.8
2016-07-08T07:54:14.494Z,22.8
2016-07-08T07:55:15.094Z,22.82
2016-07-08T07:56:14.475Z,22.8
2016-07-08T07:57:14.468Z,22.82
2016-07-08T07:58:15.129Z,22.87
2016-07-08T07:59:14.449Z,22.9
2016-07-08T08:00:14.446Z,22.89
2016-07-08T08:01:14.446Z,22.86
2016-07-08T08:02:14.432Z,22.86
2016-07-08T08:03:14.426Z,22.89
2016-07-08T08:04:14.420Z,22.86
2016-07-08T08:05:15.641Z,22.9
2016-07-08T08:06:14.401Z,22.87
2016-07-08T08:07:14.391Z,22.84
2016-07-08T08:08:15.005Z,22.92
2016-07-08T08:09:14.383Z,22.94
2016-07-08T08:10:14.984Z,22.99
2016-07-08T08:11:14.364Z,23.17
2016-07-08T08:12:14.358Z,23.11
2016-07-08T08:13:14.353Z,23.4
2016-07-08T08:14:14.338Z,23.53
2016-07-08T08:15:14.335Z,23.52
2016-07-08T08:16:14.950Z,23.43
2016-07-08T08:17:14.319Z,23.53
2016-07-08T08:18:14.314Z,23.5
2016-07-08T08:19:14.512Z,23.47
2016-07-08T08:20:14.299Z,23.42
2016-07-08T08:21:14.297Z,23.38
2016-07-08T08:22:14.284Z,23.49
2016-07-08T08:23:14.278Z,23.47
2016-07-08T08:24:14.269Z,23.57
2016-07-08T08:25:14.879Z,23.58
2016-07-08T08:26:14.867Z,23.62
2016-07-08T08:27:14.909Z,23.61
2016-07-08T08:28:14.243Z,23.61
2016-07-08T08:29:14.241Z,23.5
2016-07-08T08:30:14.839Z,23.45
2016-07-08T08:31:14.833Z,23.34
2016-07-08T08:32:14.214Z,23.49
2016-07-08T08:33:14.204Z,23.38
2016-07-08T08:34:14.201Z,23.43
2016-07-08T08:35:14.195Z,23.46
2016-07-08T08:36:14.183Z,23.32
2016-07-08T08:37:14.176Z,23.23
2016-07-08T08:38:14.166Z,23.27
2016-07-08T08:39:14.163Z,23.26
2016-07-08T08:40:14.156Z,23.19
2016-07-08T08:41:14.156Z,23.14
2016-07-08T08:42:14.752Z,23.17
2016-07-08T08:43:14.131Z,23.02
2016-07-08T08:44:14.128Z,23.01
2016-07-08T08:45:14.116Z,23.02
2016-07-08T08:46:14.121Z,22.94
2016-07-08T08:47:14.152Z,22.92
2016-07-08T08:48:14.728Z,22.86
2016-07-08T08:49:14.752Z,22.92
2016-07-08T08:50:14.087Z,22.92
2016-07-08T08:51:14.689Z,22.82
2016-07-08T08:52:14.678Z,23.04
2016-07-08T08:53:14.675Z,22.92
2016-07-08T08:54:14.052Z,23.02
2016-07-08T08:55:14.656Z,23.05
2016-07-08T08:56:14.033Z,23.12
2016-07-08T08:57:14.030Z,23.14
2016-07-08T08:58:15.247Z,23.19
2016-07-08T08:59:14.629Z,23.24
2016-07-08T09:00:14.628Z,23.23
2016-07-08T09:01:14.610Z,23.27
2016-07-08T09:02:14.606Z,23.46
2016-07-08T09:03:13.982Z,23.4
2016-07-08T09:04:13.975Z,23.42
2016-07-08T09:05:14.582Z,23.43
2016-07-08T09:06:13.965Z,23.34
2016-07-08T09:07:15.178Z,23.5
2016-07-08T09:08:13.949Z,23.5
2016-07-08T09:09:13.935Z,23.38
2016-07-08T09:10:13.933Z,23.42
2016-07-08T09:11:15.149Z,23.31
2016-07-08T09:12:13.917Z,23.43
2016-07-08T09:13:13.923Z,23.45
2016-07-08T09:14:13.901Z,23.34
2016-07-08T09:15:13.902Z,23.42
2016-07-08T09:16:13.888Z,23.38
2016-07-08T09:17:14.492Z,23.38
2016-07-08T09:18:14.485Z,23.46
2016-07-08T09:19:14.480Z,23.49
2016-07-08T09:20:14.470Z,23.55
2016-07-08T09:21:13.855Z,23.6
2016-07-08T09:22:13.846Z,23.58
2016-07-08T09:23:13.835Z,23.61
2016-07-08T09:24:14.443Z,23.57
2016-07-08T09:25:15.062Z,23.53
2016-07-08T09:26:14.433Z,23.55
2016-07-08T09:27:14.424Z,23.57
2016-07-08T09:28:13.798Z,23.62
2016-07-08T09:29:13.797Z,23.67
2016-07-08T09:30:13.792Z,23.58
2016-07-08T09:31:13.778Z,23.55
2016-07-08T09:32:13.766Z,23.7
2016-07-08T09:33:13.765Z,23.7
2016-07-08T09:34:13.760Z,23.76
2016-07-08T09:35:13.745Z,23.95
2016-07-08T09:36:13.744Z,23.92
2016-07-08T09:37:13.733Z,23.94
2016-07-08T09:38:13.780Z,24.05
2016-07-08T09:39:13.722Z,24.05
2016-07-08T09:40:14.327Z,24.13
2016-07-08T09:41:14.322Z,24.16
2016-07-08T09:42:13.706Z,24.32
2016-07-08T09:43:13.706Z,24.42
2016-07-08T09:44:14.299Z,24.38
2016-07-08T09:45:13.679Z,24.41
2016-07-08T09:46:13.673Z,24.45
2016-07-08T09:47:14.278Z,24.52
2016-07-08T09:48:13.660Z,24.59
2016-07-08T09:49:13.650Z,24.59
2016-07-08T09:50:13.695Z,24.52
2016-07-08T09:51:13.638Z,24.54
2016-07-08T09:52:14.858Z,24.57
2016-07-08T09:53:13.624Z,24.6
2016-07-08T09:54:13.629Z,24.6
2016-07-08T09:55:13.612Z,24.67
2016-07-08T09:56:13.607Z,24.61
2016-07-08T09:57:14.840Z,24.61
2016-07-08T09:58:14.208Z,24.61
2016-07-08T09:59:14.248Z,24.54
2016-07-08T10:00:14.193Z,24.49
2016-07-08T10:01:13.622Z,24.63
2016-07-08T10:02:13.563Z,24.56
2016-07-08T10:03:13.571Z,24.63
2016-07-08T10:04:14.173Z,24.44
2016-07-08T10:05:13.544Z,24.53
2016-07-08T10:06:13.539Z,24.53
2016-07-08T10:07:13.549Z,24.49
2016-07-08T10:08:14.140Z,24.5
2016-07-08T10:09:14.746Z,24.47
2016-07-08T10:10:13.514Z,24.49
2016-07-08T10:11:13.506Z,24.45
2016-07-08T10:12:13.506Z,24.34
2016-07-08T10:13:14.155Z,24.47
2016-07-08T10:14:13.490Z,24.39
2016-07-08T10:15:13.480Z,24.42
2016-07-08T10:16:14.094Z,24.34
2016-07-08T10:17:13.471Z,24.41
2016-07-08T10:18:14.074Z,24.38
2016-07-08T10:19:13.466Z,24.38
2016-07-08T10:20:14.061Z,24.32
2016-07-08T10:21:14.054Z,24.41
2016-07-08T10:22:14.049Z,24.44
2016-07-08T10:23:13.428Z,24.37
2016-07-08T10:24:13.424Z,24.26
2016-07-08T10:25:13.412Z,24.44
2016-07-08T10:26:13.411Z,24.47
2016-07-08T10:27:14.029Z,24.52
2016-07-08T10:28:14.014Z,24.52
2016-07-08T10:29:14.001Z,24.44
2016-07-08T10:30:13.385Z,24.41
2016-07-08T10:31:13.376Z,24.35
2016-07-08T10:32:13.982Z,24.29
2016-07-08T10:33:13.367Z,24.32
2016-07-08T10:34:13.358Z,24.19
2016-07-08T10:35:13.958Z,24.2
2016-07-08T10:36:13.346Z,24.26
2016-07-08T10:37:13.339Z,24.32
2016-07-08T10:38:13.330Z,24.42
2016-07-08T10:39:13.323Z,24.49
2016-07-08T10:40:13.318Z,24.47
2016-07-08T10:41:13.358Z,24.42
2016-07-08T10:42:13.305Z,24.31
2016-07-08T10:43:13.298Z,24.32
2016-07-08T10:44:13.287Z,24.34
2016-07-08T10:45:13.284Z,24.37
2016-07-08T10:46:14.509Z,24.39
2016-07-08T10:47:13.272Z,24.34
2016-07-08T10:48:13.265Z,24.35
2016-07-08T10:49:13.259Z,24.44
2016-07-08T10:50:13.256Z,24.41
2016-07-08T10:51:13.866Z,24.42
2016-07-08T10:52:13.239Z,24.45
2016-07-08T10:53:13.233Z,24.39
2016-07-08T10:54:13.222Z,24.32
2016-07-08T10:55:13.836Z,24.45
2016-07-08T10:56:13.826Z,24.41
2016-07-08T10:57:13.819Z,24.31
2016-07-08T10:58:13.200Z,24.37
2016-07-08T10:59:13.807Z,24.31
2016-07-08T11:00:13.193Z,24.35
2016-07-08T11:01:13.182Z,24.35
2016-07-08T11:02:13.793Z,24.29
2016-07-08T11:03:13.781Z,24.37
2016-07-08T11:04:13.160Z,24.24
2016-07-08T11:05:13.151Z,24.38
2016-07-08T11:06:13.156Z,24.35
2016-07-08T11:07:13.146Z,24.45
2016-07-08T11:08:13.750Z,24.47
2016-07-08T11:09:13.132Z,24.52
2016-07-08T11:10:13.129Z,24.59
2016-07-08T11:11:13.114Z,24.73
2016-07-08T11:12:13.114Z,24.83
2016-07-08T11:13:13.120Z,24.95
2016-07-08T11:14:13.097Z,25.01
2016-07-08T11:15:13.091Z,24.97
2016-07-08T11:16:13.091Z,24.97
2016-07-08T11:17:13.080Z,25.17
2016-07-08T11:18:13.087Z,25.32
2016-07-08T11:19:13.687Z,25.5
2016-07-08T11:20:13.064Z,25.46
2016-07-08T11:21:13.072Z,25.42
2016-07-08T11:22:13.667Z,25.54
2016-07-08T11:23:13.050Z,25.34
2016-07-08T11:24:13.047Z,25.37
2016-07-08T11:25:13.661Z,25.31
2016-07-08T11:26:13.038Z,25.28
2016-07-08T11:27:13.032Z,25
2016-07-08T11:28:13.025Z,25.01
2016-07-08T11:29:13.643Z,24.98
2016-07-08T11:30:13.630Z,24.95
2016-07-08T11:31:13.007Z,24.79
2016-07-08T11:32:13.004Z,24.82
2016-07-08T11:33:12.995Z,24.88
2016-07-08T11:34:13.004Z,24.6
2016-07-08T11:35:13.602Z,24.6
2016-07-08T11:36:13.626Z,24.67
2016-07-08T11:37:13.638Z,24.63
2016-07-08T11:38:12.978Z,24.57
2016-07-08T11:39:12.969Z,24.52
2016-07-08T11:40:12.959Z,24.5
2016-07-08T11:41:13.566Z,24.45
2016-07-08T11:42:12.948Z,24.59
2016-07-08T11:43:13.554Z,24.54
2016-07-08T11:44:12.934Z,24.67
2016-07-08T11:45:13.556Z,24.54
2016-07-08T11:46:13.536Z,24.47
2016-07-08T11:47:13.530Z,24.53
2016-07-08T11:48:12.923Z,24.45
2016-07-08T11:49:12.909Z,24.47
2016-07-08T11:50:12.901Z,24.45
2016-07-08T11:51:13.505Z,24.39
2016-07-08T11:52:13.508Z,24.44
2016-07-08T11:53:12.886Z,24.32
2016-07-08T11:54:12.884Z,24.35
2016-07-08T11:55:14.100Z,24.34
2016-07-08T11:56:12.865Z,24.32
2016-07-08T11:57:12.857Z,24.37
2016-07-08T11:58:12.852Z,24.41
2016-07-08T11:59:12.848Z,24.47
2016-07-08T12:00:12.910Z,24.45
2016-07-08T12:01:13.457Z,24.5
2016-07-08T12:02:13.441Z,24.5
2016-07-08T12:03:13.459Z,24.5
2016-07-08T12:04:12.816Z,24.47
2016-07-08T12:05:12.812Z,24.54
2016-07-08T12:06:13.412Z,24.57
2016-07-08T12:07:13.413Z,24.5
2016-07-08T12:08:12.792Z,24.52
2016-07-08T12:09:13.397Z,24.54
2016-07-08T12:10:12.786Z,24.56
2016-07-08T12:11:12.778Z,24.61
2016-07-08T12:12:12.773Z,24.57
2016-07-08T12:13:13.373Z,24.75
2016-07-08T12:14:12.759Z,24.75
2016-07-08T12:15:12.752Z,24.92
2016-07-08T12:16:12.744Z,24.98
2016-07-08T12:17:13.352Z,24.97
2016-07-08T12:18:13.342Z,24.95
2016-07-08T12:19:12.735Z,24.98
2016-07-08T12:20:12.723Z,24.94
2016-07-08T12:21:12.713Z,24.97
2016-07-08T12:22:12.715Z,24.91
2016-07-08T12:23:12.707Z,24.95
2016-07-08T12:24:13.934Z,25.07
2016-07-08T12:25:13.326Z,25.07
2016-07-08T12:26:12.695Z,24.87
2016-07-08T12:27:12.680Z,24.91
2016-07-08T12:28:13.904Z,24.98
2016-07-08T12:29:12.720Z,24.85
2016-07-08T12:30:12.663Z,24.69
2016-07-08T12:31:12.673Z,24.82
2016-07-08T12:32:13.889Z,24.85
2016-07-08T12:33:12.658Z,24.77
2016-07-08T12:34:12.649Z,25.09
2016-07-08T12:35:13.260Z,25.17
2016-07-08T12:36:13.249Z,25.22
2016-07-08T12:37:13.252Z,25.31
2016-07-08T12:38:13.246Z,25.2
2016-07-08T12:39:13.238Z,25.06
2016-07-08T12:40:13.231Z,25.01
2016-07-08T12:41:12.616Z,25
2016-07-08T12:42:12.609Z,24.87
2016-07-08T12:43:12.605Z,24.95
2016-07-08T12:44:13.213Z,25.35
2016-07-08T12:45:13.216Z,25.43
2016-07-08T12:46:12.598Z,25.68
2016-07-08T12:47:12.588Z,25.97
2016-07-08T12:48:13.194Z,25.98
2016-07-08T12:49:12.584Z,26.15
2016-07-08T12:50:12.580Z,26.36
2016-07-08T12:51:12.574Z,26.27
2016-07-08T12:52:12.575Z,26.39
2016-07-08T12:53:12.568Z,26.36
2016-07-08T12:54:12.560Z,26.5
2016-07-08T12:55:12.568Z,26.36